Time,TemperatureF,DewpointF,PressureIn,WindDirection,WindDirectionDegrees,WindSpeedMPH,WindSpeedGustMPH,Humidity,HourlyPrecipIn,Conditions,Clouds,dailyrainin,SoftwareType,DateUTC
2013-03-18 00:03:00,33.0,25.0,-100.00,ESE,104,2.0,12.0,69,0.00,,,-99.99,,2013-03-18 04:03:00,
2013-03-18 00:13:00,33.0,25.0,-100.00,ENE,74,2.0,12.0,71,0.00,,,-99.99,,2013-03-18 04:13:00,
2013-03-18 00:23:00,33.0,25.0,-100.00,ENE,74,4.0,12.0,71,0.00,,,-99.99,,2013-03-18 04:23:00,
2013-03-18 00:33:00,32.0,25.0,-100.00,ENE,57,4.0,12.0,72,0.00,,,-99.99,,2013-03-18 04:33:00,
2013-03-18 00:42:00,32.0,25.0,-100.00,East,79,4.0,12.0,71,0.00,,,-99.99,,2013-03-18 04:42:00,
2013-03-18 00:52:00,32.0,25.0,-100.00,SE,128,3.0,12.0,72,0.00,,,-99.99,,2013-03-18 04:52:00,
2013-03-18 01:03:00,32.0,25.0,-100.00,East,79,3.0,12.0,72,0.00,,,-99.99,,2013-03-18 05:03:00,
2013-03-18 01:12:00,32.0,25.0,-100.00,SE,127,4.0,12.0,72,0.00,,,-99.99,,2013-03-18 05:12:00,
2013-03-18 01:22:00,32.0,25.0,-100.00,East,93,2.0,12.0,72,0.00,,,-99.99,,2013-03-18 05:22:00,
2013-03-18 01:32:00,32.0,25.0,-100.00,East,86,1.0,12.0,73,0.00,,,-99.99,,2013-03-18 05:32:00,
2013-03-18 01:43:00,31.0,23.0,-100.00,SSE,162,1.0,12.0,71,0.00,,,-99.99,,2013-03-18 05:43:00,
2013-03-18 01:52:00,33.0,25.0,-100.00,SSE,149,1.0,12.0,71,0.00,,,-99.99,,2013-03-18 05:52:00,
2013-03-18 02:02:00,31.0,23.0,-100.00,East,98,1.0,12.0,69,0.00,,,-99.99,,2013-03-18 06:02:00,
2013-03-18 02:12:00,31.0,23.0,-100.00,ESE,105,1.0,12.0,69,0.00,,,-99.99,,2013-03-18 06:12:00,
2013-03-18 02:22:00,31.0,23.0,-100.00,East,100,1.0,12.0,69,0.00,,,-99.99,,2013-03-18 06:22:00,
2013-03-18 02:32:00,33.0,25.0,-100.00,ESE,104,2.0,12.0,69,0.00,,,-99.99,,2013-03-18 06:32:00,
2013-03-18 02:42:00,31.0,23.0,-100.00,ENE,74,3.0,12.0,69,0.00,,,-99.99,,2013-03-18 06:42:00,
2013-03-18 02:52:00,34.0,27.0,-100.00,ESE,103,4.0,12.0,69,0.00,,,-99.99,,2013-03-18 06:52:00,
2013-03-18 03:02:00,31.0,23.0,-100.00,ENE,77,3.0,12.0,68,0.00,,,-99.99,,2013-03-18 07:02:00,
2013-03-18 03:12:00,31.0,23.0,-100.00,ESE,111,2.0,12.0,69,0.00,,,-99.99,,2013-03-18 07:12:00,
2013-03-18 03:23:00,31.0,23.0,-100.00,East,101,1.0,12.0,69,0.00,,,-99.99,,2013-03-18 07:23:00,
2013-03-18 03:33:00,32.0,23.0,-100.00,East,87,2.0,12.0,69,0.00,,,-99.99,,2013-03-18 07:33:00,
2013-03-18 03:42:00,32.0,23.0,-100.00,ENE,76,2.0,12.0,68,0.00,,,-99.99,,2013-03-18 07:42:00,
2013-03-18 03:52:00,32.0,23.0,-100.00,East,93,2.0,12.0,68,0.00,,,-99.99,,2013-03-18 07:52:00,
2013-03-18 04:02:00,32.0,25.0,-100.00,ENE,74,2.0,2.0,69,0.00,,,-99.99,,2013-03-18 08:02:00,
2013-03-18 04:12:00,32.0,23.0,-100.00,SE,139,2.0,4.0,69,0.00,,,-99.99,,2013-03-18 08:12:00,
2013-03-18 04:22:00,32.0,25.0,-100.00,East,90,1.0,4.0,69,0.00,,,-99.99,,2013-03-18 08:22:00,
2013-03-18 04:32:00,32.0,25.0,-100.00,SE,128,2.0,4.0,69,0.00,,,-99.99,,2013-03-18 08:32:00,
2013-03-18 04:43:00,32.0,25.0,-100.00,SE,141,2.0,4.0,69,0.00,,,-99.99,,2013-03-18 08:43:00,
2013-03-18 04:52:00,32.0,25.0,-100.00,SE,138,1.0,4.0,69,0.00,,,-99.99,,2013-03-18 08:52:00,
2013-03-18 05:02:00,35.0,27.0,-100.00,ESE,115,2.0,4.0,69,0.00,,,-99.99,,2013-03-18 09:02:00,
2013-03-18 05:12:00,35.0,28.0,-100.00,ENE,72,2.0,4.0,72,0.00,,,-99.99,,2013-03-18 09:12:00,
2013-03-18 05:22:00,34.0,28.0,-100.00,ESE,111,1.0,4.0,76,0.00,,,-99.99,,2013-03-18 09:22:00,
2013-03-18 05:33:00,34.0,28.0,-100.00,SSE,159,2.0,4.0,76,0.00,,,-99.99,,2013-03-18 09:33:00,
2013-03-18 05:43:00,35.0,28.0,-100.00,NE,50,1.0,4.0,77,0.00,,,-99.99,,2013-03-18 09:43:00,
2013-03-18 05:53:00,34.0,28.0,-100.00,SE,139,2.0,4.0,78,0.00,,,-99.99,,2013-03-18 09:53:00,
2013-03-18 06:03:00,36.0,32.0,-100.00,ESE,120,2.0,4.0,80,0.00,,,-99.99,,2013-03-18 10:03:00,
2013-03-18 06:13:00,35.0,30.0,-100.00,SSE,158,2.0,4.0,80,0.00,,,-99.99,,2013-03-18 10:13:00,
2013-03-18 06:23:00,35.0,30.0,-100.00,NW,319,2.0,4.0,82,1.14,,,-99.99,,2013-03-18 10:23:00,
2013-03-18 06:33:00,35.0,32.0,-100.00,ENE,66,2.0,4.0,84,0.00,,,-99.99,,2013-03-18 10:33:00,
2013-03-18 06:42:00,35.0,32.0,-100.00,SE,141,2.0,4.0,85,0.00,,,-99.99,,2013-03-18 10:42:00,
2013-03-18 06:53:00,36.0,32.0,-100.00,SE,138,3.0,4.0,86,1.14,,,-99.99,,2013-03-18 10:53:00,
2013-03-18 07:03:00,36.0,32.0,-100.00,East,100,2.0,4.0,88,1.14,,,-99.99,,2013-03-18 11:03:00,
2013-03-18 07:13:00,36.0,32.0,-100.00,East,93,2.0,4.0,88,4.53,,,-99.99,,2013-03-18 11:13:00,
2013-03-18 07:22:00,36.0,32.0,-100.00,East,87,2.0,4.0,89,2.83,,,-99.99,,2013-03-18 11:22:00,
2013-03-18 07:32:00,36.0,32.0,-100.00,ESE,104,2.0,4.0,90,2.83,,,-99.99,,2013-03-18 11:32:00,
2013-03-18 07:42:00,36.0,32.0,-100.00,SE,134,1.0,4.0,90,7.36,,,-99.99,,2013-03-18 11:42:00,
2013-03-18 07:52:00,36.0,32.0,-100.00,SSW,194,1.0,4.0,90,4.53,,,-99.99,,2013-03-18 11:52:00,
2013-03-18 08:03:00,36.0,32.0,-100.00,SE,138,1.0,4.0,91,7.36,,,-99.99,,2013-03-18 12:03:00,
2013-03-18 08:13:00,36.0,32.0,-100.00,ESE,112,2.0,4.0,91,6.22,,,-99.99,,2013-03-18 12:13:00,
2013-03-18 08:22:00,37.0,34.0,-100.00,East,96,2.0,4.0,91,4.53,,,-99.99,,2013-03-18 12:22:00,
2013-03-18 08:32:00,37.0,34.0,-100.00,SE,139,3.0,4.0,93,1.14,,,-99.99,,2013-03-18 12:32:00,
2013-03-18 08:43:00,37.0,34.0,-100.00,East,88,4.0,4.0,91,0.00,,,-99.99,,2013-03-18 12:43:00,
2013-03-18 08:52:00,37.0,34.0,-100.00,SSE,149,5.0,6.0,93,2.83,,,-99.99,,2013-03-18 12:52:00,
2013-03-18 09:03:00,35.0,32.0,-100.00,SE,132,3.0,6.0,91,0.00,,,-99.99,,2013-03-18 13:03:00,
2013-03-18 09:12:00,35.0,32.0,-100.00,SSE,160,4.0,6.0,91,0.00,,,-99.99,,2013-03-18 13:12:00,
2013-03-18 09:22:00,34.0,32.0,-100.00,ESE,121,2.0,6.0,93,1.14,,,-99.99,,2013-03-18 13:22:00,
2013-03-18 09:33:00,36.0,32.0,-100.00,ESE,114,4.0,6.0,91,1.14,,,-99.99,,2013-03-18 13:33:00,
2013-03-18 09:42:00,35.0,32.0,-100.00,South,177,5.0,8.0,93,2.83,,,-99.99,,2013-03-18 13:42:00,
2013-03-18 09:52:00,35.0,32.0,-100.00,SSE,168,3.0,8.0,93,4.53,,,-99.99,,2013-03-18 13:52:00,
2013-03-18 10:02:00,35.0,32.0,-100.00,ESE,108,3.0,8.0,93,4.53,,,-99.99,,2013-03-18 14:02:00,
2013-03-18 10:12:00,35.0,32.0,-100.00,ESE,121,3.0,8.0,93,4.53,,,-99.99,,2013-03-18 14:12:00,
2013-03-18 10:22:00,35.0,32.0,-100.00,South,169,6.0,8.0,94,4.53,,,-99.99,,2013-03-18 14:22:00,
2013-03-18 10:32:00,35.0,32.0,-100.00,ESE,111,3.0,8.0,94,6.22,,,-99.99,,2013-03-18 14:32:00,
2013-03-18 10:42:00,35.0,32.0,-100.00,SE,125,4.0,8.0,95,2.83,,,-99.99,,2013-03-18 14:42:00,
2013-03-18 10:52:00,35.0,32.0,-100.00,SE,136,3.0,8.0,95,7.36,,,-99.99,,2013-03-18 14:52:00,
2013-03-18 11:02:00,35.0,32.0,-100.00,SSE,162,4.0,8.0,95,2.83,,,-99.99,,2013-03-18 15:02:00,
2013-03-18 11:12:00,35.0,32.0,-100.00,South,169,3.0,8.0,95,2.83,,,-99.99,,2013-03-18 15:12:00,
2013-03-18 11:22:00,35.0,32.0,-100.00,ESE,105,5.0,8.0,95,7.36,,,-99.99,,2013-03-18 15:22:00,
2013-03-18 11:33:00,35.0,32.0,-100.00,SE,141,4.0,8.0,95,1.14,,,-99.99,,2013-03-18 15:33:00,
2013-03-18 11:43:00,35.0,34.0,-100.00,ESE,111,4.0,8.0,95,0.00,,,-99.99,,2013-03-18 15:43:00,
2013-03-18 11:52:00,35.0,32.0,-100.00,SSE,152,5.0,8.0,95,0.00,,,-99.99,,2013-03-18 15:52:00,
2013-03-18 12:03:00,35.0,32.0,-100.00,SSE,148,4.0,8.0,95,0.00,,,-99.99,,2013-03-18 16:03:00,
2013-03-18 12:12:00,35.0,32.0,-100.00,SSE,162,5.0,8.0,94,0.00,,,-99.99,,2013-03-18 16:12:00,
2013-03-18 12:23:00,36.0,34.0,-100.00,South,189,6.0,8.0,94,0.00,,,-99.99,,2013-03-18 16:23:00,
2013-03-18 12:33:00,36.0,34.0,-100.00,SE,142,3.0,8.0,94,4.53,,,-99.99,,2013-03-18 16:33:00,
2013-03-18 12:42:00,36.0,34.0,-100.00,SE,125,2.0,8.0,94,4.53,,,-99.99,,2013-03-18 16:42:00,
2013-03-18 12:52:00,36.0,34.0,-100.00,SSW,204,4.0,8.0,94,4.53,,,-99.99,,2013-03-18 16:52:00,
2013-03-18 13:03:00,36.0,34.0,-100.00,SSE,155,3.0,8.0,94,0.00,,,-99.99,,2013-03-18 17:03:00,
2013-03-18 13:12:00,36.0,34.0,-100.00,SSE,155,2.0,8.0,94,0.00,,,-99.99,,2013-03-18 17:12:00,
2013-03-18 13:22:00,36.0,34.0,-100.00,SSE,153,4.0,8.0,94,0.00,,,-99.99,,2013-03-18 17:22:00,
2013-03-18 13:32:00,36.0,34.0,-100.00,East,98,4.0,8.0,94,0.00,,,-99.99,,2013-03-18 17:32:00,
2013-03-18 13:42:00,37.0,34.0,-100.00,SE,141,3.0,8.0,93,0.00,,,-99.99,,2013-03-18 17:42:00,
2013-03-18 13:52:00,36.0,34.0,-100.00,SSE,159,3.0,8.0,94,0.00,,,-99.99,,2013-03-18 17:52:00,
2013-03-18 14:02:00,39.0,36.0,-100.00,South,175,4.0,8.0,94,0.00,,,-99.99,,2013-03-18 18:02:00,
2013-03-18 14:12:00,37.0,34.0,-100.00,SW,232,4.0,8.0,93,0.00,,,-99.99,,2013-03-18 18:12:00,
2013-03-18 14:22:00,37.0,34.0,-100.00,ESE,117,4.0,8.0,93,0.00,,,-99.99,,2013-03-18 18:22:00,
2013-03-18 14:32:00,37.0,34.0,-100.00,SSE,159,3.0,8.0,93,0.00,,,-99.99,,2013-03-18 18:32:00,
2013-03-18 14:42:00,37.0,34.0,-100.00,South,176,3.0,8.0,94,0.00,,,-99.99,,2013-03-18 18:42:00,
2013-03-18 14:52:00,38.0,36.0,-100.00,SSE,166,3.0,8.0,94,0.00,,,-99.99,,2013-03-18 18:52:00,
2013-03-18 15:02:00,38.0,36.0,-100.00,East,81,3.0,8.0,93,2.83,,,-99.99,,2013-03-18 19:02:00,
2013-03-18 15:12:00,38.0,36.0,-100.00,SE,138,2.0,8.0,94,0.00,,,-99.99,,2013-03-18 19:12:00,
2013-03-18 15:22:00,38.0,36.0,-100.00,SSW,206,2.0,8.0,93,2.83,,,-99.99,,2013-03-18 19:22:00,
2013-03-18 15:33:00,38.0,36.0,-100.00,SE,142,2.0,8.0,93,0.00,,,-99.99,,2013-03-18 19:33:00,
2013-03-18 15:42:00,39.0,36.0,-100.00,SE,144,2.0,8.0,93,0.00,,,-99.99,,2013-03-18 19:42:00,
2013-03-18 15:52:00,39.0,36.0,-100.00,SSE,148,2.0,8.0,94,0.00,,,-99.99,,2013-03-18 19:52:00,
2013-03-18 16:03:00,39.0,36.0,-100.00,SE,139,4.0,8.0,94,0.00,,,-99.99,,2013-03-18 20:03:00,
2013-03-18 16:12:00,39.0,37.0,-100.00,SSE,148,3.0,8.0,94,0.00,,,-99.99,,2013-03-18 20:12:00,
2013-03-18 16:23:00,39.0,37.0,-100.00,SSE,156,1.0,8.0,94,0.00,,,-99.99,,2013-03-18 20:23:00,
2013-03-18 16:33:00,40.0,37.0,-100.00,South,179,2.0,8.0,94,0.00,,,-99.99,,2013-03-18 20:33:00,
2013-03-18 16:42:00,40.0,37.0,-100.00,South,169,1.0,8.0,94,0.00,,,-99.99,,2013-03-18 20:42:00,
2013-03-18 16:52:00,41.0,37.0,-100.00,South,183,2.0,8.0,94,0.00,,,-99.99,,2013-03-18 20:52:00,
2013-03-18 17:02:00,41.0,37.0,-100.00,SE,129,3.0,8.0,93,1.14,,,-99.99,,2013-03-18 21:02:00,
2013-03-18 17:12:00,41.0,39.0,-100.00,South,173,3.0,8.0,94,0.00,,,-99.99,,2013-03-18 21:12:00,
2013-03-18 17:22:00,41.0,39.0,-100.00,South,172,2.0,8.0,94,0.00,,,-99.99,,2013-03-18 21:22:00,
2013-03-18 17:33:00,41.0,39.0,-100.00,SSE,149,2.0,8.0,94,2.83,,,-99.99,,2013-03-18 21:33:00,
2013-03-18 17:43:00,42.0,39.0,-100.00,SE,134,3.0,8.0,94,0.00,,,-99.99,,2013-03-18 21:43:00,
2013-03-18 17:52:00,45.0,43.0,-100.00,SE,132,2.0,8.0,95,0.00,,,-99.99,,2013-03-18 21:52:00,
2013-03-18 18:03:00,43.0,41.0,-100.00,SSE,168,2.0,8.0,94,0.00,,,-99.99,,2013-03-18 22:03:00,
2013-03-18 18:13:00,43.0,41.0,-100.00,SSE,165,2.0,8.0,94,0.00,,,-99.99,,2013-03-18 22:13:00,
2013-03-18 18:23:00,44.0,41.0,-100.00,SSE,152,3.0,8.0,94,0.00,,,-99.99,,2013-03-18 22:23:00,
2013-03-18 18:33:00,44.0,41.0,-100.00,South,169,2.0,8.0,94,4.53,,,-99.99,,2013-03-18 22:33:00,
2013-03-18 18:42:00,44.0,41.0,-100.00,SSE,158,2.0,8.0,94,2.83,,,-99.99,,2013-03-18 22:42:00,
2013-03-18 18:52:00,44.0,41.0,-100.00,ESE,105,1.0,8.0,94,0.00,,,-99.99,,2013-03-18 22:52:00,
2013-03-18 19:03:00,44.0,41.0,-100.00,SE,144,1.0,8.0,94,0.00,,,-99.99,,2013-03-18 23:03:00,
2013-03-18 19:13:00,45.0,43.0,-100.00,SSE,155,2.0,8.0,94,0.00,,,-99.99,,2013-03-18 23:13:00,
2013-03-18 19:23:00,45.0,43.0,-100.00,ESE,120,2.0,8.0,94,0.00,,,-99.99,,2013-03-18 23:23:00,
2013-03-18 19:33:00,45.0,43.0,-100.00,SSE,168,2.0,8.0,94,0.00,,,-99.99,,2013-03-18 23:33:00,
2013-03-18 19:42:00,47.0,45.0,-100.00,South,189,2.0,8.0,95,0.00,,,-99.99,,2013-03-18 23:42:00,
2013-03-18 19:52:00,46.0,43.0,-100.00,SSE,166,2.0,8.0,94,0.00,,,-99.99,,2013-03-18 23:52:00,
2013-03-18 20:03:00,45.0,43.0,-100.00,South,172,2.0,8.0,93,0.00,,,-99.99,,2013-03-19 00:03:00,
2013-03-18 20:12:00,46.0,43.0,-100.00,SSE,156,2.0,8.0,94,0.00,,,-99.99,,2013-03-19 00:12:00,
2013-03-18 20:23:00,45.0,43.0,-100.00,SSE,158,2.0,8.0,94,0.00,,,-99.99,,2013-03-19 00:23:00,
2013-03-18 20:32:00,46.0,43.0,-100.00,SSE,153,2.0,8.0,94,0.00,,,-99.99,,2013-03-19 00:32:00,
2013-03-18 20:42:00,46.0,43.0,-100.00,SSE,152,2.0,8.0,94,0.00,,,-99.99,,2013-03-19 00:42:00,
2013-03-18 20:52:00,46.0,43.0,-100.00,ESE,120,2.0,8.0,94,0.00,,,-99.99,,2013-03-19 00:52:00,
2013-03-18 21:02:00,46.0,43.0,-100.00,SSW,192,2.0,8.0,93,4.53,,,-99.99,,2013-03-19 01:02:00,
2013-03-18 21:12:00,47.0,45.0,-100.00,SSW,194,2.0,8.0,94,4.53,,,-99.99,,2013-03-19 01:12:00,
2013-03-18 21:23:00,49.0,46.0,-100.00,WSW,255,4.0,8.0,93,4.53,,,-99.99,,2013-03-19 01:23:00,
2013-03-18 21:33:00,49.0,46.0,-100.00,SSW,206,3.0,8.0,94,4.53,,,-99.99,,2013-03-19 01:33:00,
2013-03-18 21:43:00,47.0,45.0,-100.00,SSW,192,4.0,8.0,94,4.53,,,-99.99,,2013-03-19 01:43:00,
2013-03-18 21:52:00,47.0,45.0,-100.00,SSW,203,3.0,8.0,94,4.53,,,-99.99,,2013-03-19 01:52:00,
2013-03-18 22:03:00,48.0,45.0,-100.00,SSW,210,2.0,8.0,94,4.53,,,-99.99,,2013-03-19 02:03:00,
2013-03-18 22:13:00,47.0,45.0,-100.00,SSW,201,2.0,8.0,94,4.53,,,-99.99,,2013-03-19 02:13:00,
2013-03-18 22:23:00,48.0,45.0,-100.00,SW,214,2.0,8.0,94,4.53,,,-99.99,,2013-03-19 02:23:00,
2013-03-18 22:33:00,48.0,45.0,-100.00,SSW,204,2.0,8.0,94,0.00,,,-99.99,,2013-03-19 02:33:00,
2013-03-18 22:42:00,48.0,45.0,-100.00,West,271,2.0,8.0,94,0.00,,,-99.99,,2013-03-19 02:42:00,
2013-03-18 22:52:00,50.0,48.0,-100.00,SW,220,1.0,8.0,95,0.00,,,-99.99,,2013-03-19 02:52:00,
2013-03-18 23:02:00,50.0,48.0,-100.00,West,276,1.0,8.0,95,0.00,,,-99.99,,2013-03-19 03:02:00,
2013-03-18 23:12:00,48.0,45.0,-100.00,SW,232,1.0,8.0,94,0.00,,,-99.99,,2013-03-19 03:12:00,
2013-03-18 23:22:00,50.0,48.0,-100.00,WSW,251,2.0,8.0,95,0.00,,,-99.99,,2013-03-19 03:22:00,
2013-03-18 23:33:00,50.0,48.0,-100.00,WSW,240,3.0,8.0,95,0.00,,,-99.99,,2013-03-19 03:33:00,
2013-03-18 23:43:00,50.0,48.0,-100.00,NW,321,5.0,8.0,95,0.00,,,-99.99,,2013-03-19 03:43:00,
2013-03-18 23:53:00,49.0,46.0,-100.00,WNW,285,8.0,10.0,94,0.00,,,-99.99,,2013-03-19 03:53:00,